sensor_id;sensor_type;location;lat;lon;timestamp;P1;durP1;ratioP1;P2;durP2;ratioP2
1404;SDS011;697;51.114;6.542;2024-01-06T00:01:54;17.03;;;12.47;;
1404;SDS011;697;51.114;6.542;2024-01-06T00:04:21;18.73;;;13.17;;
1404;SDS011;697;51.114;6.542;2024-01-06T00:06:48;13.80;;;12.30;;
1404;SDS011;697;51.114;6.542;2024-01-06T00:09:15;15.57;;;12.80;;
1404;SDS011;697;51.114;6.542;2024-01-06T00:11:41;15.57;;;13.40;;
1404;SDS011;697;51.114;6.542;2024-01-06T00:14:09;17.10;;;13.67;;
1404;SDS011;697;51.114;6.542;2024-01-06T00:16:36;18.00;;;14.00;;
1404;SDS011;697;51.114;6.542;2024-01-06T00:19:03;18.03;;;14.07;;
1404;SDS011;697;51.114;6.542;2024-01-06T00:21:30;19.77;;;13.70;;
1404;SDS011;697;51.114;6.542;2024-01-06T00:23:56;15.70;;;13.33;;
1404;SDS011;697;51.114;6.542;2024-01-06T00:26:23;16.33;;;12.30;;
1404;SDS011;697;51.114;6.542;2024-01-06T00:28:50;20.00;;;13.77;;
1404;SDS011;697;51.114;6.542;2024-01-06T00:31:18;18.00;;;14.30;;
1404;SDS011;697;51.114;6.542;2024-01-06T00:33:45;19.47;;;14.50;;
1404;SDS011;697;51.114;6.542;2024-01-06T00:36:12;17.60;;;13.87;;
1404;SDS011;697;51.114;6.542;2024-01-06T00:38:39;17.30;;;14.10;;
1404;SDS011;697;51.114;6.542;2024-01-06T00:41:05;17.57;;;15.10;;
1404;SDS011;697;51.114;6.542;2024-01-06T00:43:32;23.57;;;15.03;;
1404;SDS011;697;51.114;6.542;2024-01-06T00:45:59;19.00;;;15.00;;
1404;SDS011;697;51.114;6.542;2024-01-06T00:48:27;20.37;;;14.83;;
1404;SDS011;697;51.114;6.542;2024-01-06T00:50:54;19.80;;;14.63;;
1404;SDS011;697;51.114;6.542;2024-01-06T00:53:21;21.40;;;15.70;;
1404;SDS011;697;51.114;6.542;2024-01-06T00:55:48;18.73;;;14.27;;
1404;SDS011;697;51.114;6.542;2024-01-06T00:58:14;16.73;;;14.93;;
1404;SDS011;697;51.114;6.542;2024-01-06T01:00:41;21.20;;;16.30;;
1404;SDS011;697;51.114;6.542;2024-01-06T01:03:08;19.23;;;16.00;;
1404;SDS011;697;51.114;6.542;2024-01-06T01:05:36;22.07;;;16.33;;
1404;SDS011;697;51.114;6.542;2024-01-06T01:08:03;20.07;;;14.83;;
1404;SDS011;697;51.114;6.542;2024-01-06T01:10:30;21.50;;;15.30;;
1404;SDS011;697;51.114;6.542;2024-01-06T01:12:57;23.53;;;16.30;;
1404;SDS011;697;51.114;6.542;2024-01-06T01:15:24;24.27;;;17.87;;
1404;SDS011;697;51.114;6.542;2024-01-06T01:17:51;22.47;;;16.87;;
1404;SDS011;697;51.114;6.542;2024-01-06T01:20:17;22.37;;;16.90;;
1404;SDS011;697;51.114;6.542;2024-01-06T01:22:46;23.23;;;17.97;;
1404;SDS011;697;51.114;6.542;2024-01-06T01:25:13;24.80;;;18.40;;
1404;SDS011;697;51.114;6.542;2024-01-06T01:27:40;21.93;;;16.60;;
1404;SDS011;697;51.114;6.542;2024-01-06T01:30:07;28.27;;;19.27;;
1404;SDS011;697;51.114;6.542;2024-01-06T01:32:34;26.17;;;18.80;;
1404;SDS011;697;51.114;6.542;2024-01-06T01:35:01;23.77;;;18.73;;
1404;SDS011;697;51.114;6.542;2024-01-06T01:37:28;25.63;;;18.03;;
1404;SDS011;697;51.114;6.542;2024-01-06T01:39:56;25.77;;;19.97;;
1404;SDS011;697;51.114;6.542;2024-01-06T01:42:23;28.23;;;20.00;;
1404;SDS011;697;51.114;6.542;2024-01-06T01:44:49;30.43;;;20.23;;
1404;SDS011;697;51.114;6.542;2024-01-06T01:47:16;28.10;;;20.27;;
1404;SDS011;697;51.114;6.542;2024-01-06T01:49:44;31.73;;;21.40;;
1404;SDS011;697;51.114;6.542;2024-01-06T01:52:12;32.33;;;23.10;;
1404;SDS011;697;51.114;6.542;2024-01-06T01:54:39;28.60;;;21.17;;
1404;SDS011;697;51.114;6.542;2024-01-06T01:57:08;33.07;;;21.60;;
1404;SDS011;697;51.114;6.542;2024-01-06T01:59:36;32.70;;;21.23;;
1404;SDS011;697;51.114;6.542;2024-01-06T02:02:03;30.67;;;22.47;;
1404;SDS011;697;51.114;6.542;2024-01-06T02:04:30;34.67;;;23.03;;
1404;SDS011;697;51.114;6.542;2024-01-06T02:06:57;30.70;;;21.77;;
1404;SDS011;697;51.114;6.542;2024-01-06T02:09:24;30.90;;;22.87;;
1404;SDS011;697;51.114;6.542;2024-01-06T02:11:54;33.60;;;22.00;;
1404;SDS011;697;51.114;6.542;2024-01-06T02:14:22;33.27;;;22.70;;
1404;SDS011;697;51.114;6.542;2024-01-06T02:16:49;33.77;;;22.30;;
1404;SDS011;697;51.114;6.542;2024-01-06T02:19:16;33.17;;;23.47;;
1404;SDS011;697;51.114;6.542;2024-01-06T02:21:43;28.60;;;20.10;;
1404;SDS011;697;51.114;6.542;2024-01-06T02:24:12;30.90;;;22.97;;
1404;SDS011;697;51.114;6.542;2024-01-06T02:26:39;31.20;;;22.20;;
1404;SDS011;697;51.114;6.542;2024-01-06T02:29:05;32.40;;;22.97;;
1404;SDS011;697;51.114;6.542;2024-01-06T02:31:32;34.03;;;22.70;;
1404;SDS011;697;51.114;6.542;2024-01-06T02:33:59;37.00;;;23.50;;
1404;SDS011;697;51.114;6.542;2024-01-06T02:36:25;35.53;;;23.07;;
1404;SDS011;697;51.114;6.542;2024-01-06T02:38:54;35.87;;;23.57;;
1404;SDS011;697;51.114;6.542;2024-01-06T02:41:23;33.07;;;23.57;;
1404;SDS011;697;51.114;6.542;2024-01-06T02:43:50;36.70;;;23.87;;
1404;SDS011;697;51.114;6.542;2024-01-06T02:46:17;34.90;;;24.00;;
1404;SDS011;697;51.114;6.542;2024-01-06T02:48:44;33.93;;;23.73;;
1404;SDS011;697;51.114;6.542;2024-01-06T02:51:11;35.50;;;24.50;;
1404;SDS011;697;51.114;6.542;2024-01-06T02:53:38;36.20;;;25.23;;
1404;SDS011;697;51.114;6.542;2024-01-06T02:56:09;38.20;;;26.57;;
1404;SDS011;697;51.114;6.542;2024-01-06T02:58:37;35.93;;;25.00;;
1404;SDS011;697;51.114;6.542;2024-01-06T03:01:06;36.03;;;25.37;;
1404;SDS011;697;51.114;6.542;2024-01-06T03:03:32;33.77;;;23.03;;
1404;SDS011;697;51.114;6.542;2024-01-06T03:05:59;43.93;;;27.50;;
1404;SDS011;697;51.114;6.542;2024-01-06T03:08:29;36.70;;;24.90;;
1404;SDS011;697;51.114;6.542;2024-01-06T03:10:56;41.30;;;25.67;;
1404;SDS011;697;51.114;6.542;2024-01-06T03:13:23;41.00;;;26.10;;
1404;SDS011;697;51.114;6.542;2024-01-06T03:15:52;34.77;;;22.90;;
1404;SDS011;697;51.114;6.542;2024-01-06T03:18:19;38.47;;;25.60;;
1404;SDS011;697;51.114;6.542;2024-01-06T03:20:46;34.80;;;22.97;;
1404;SDS011;697;51.114;6.542;2024-01-06T03:23:12;35.30;;;24.20;;
1404;SDS011;697;51.114;6.542;2024-01-06T03:25:40;37.27;;;25.27;;
1404;SDS011;697;51.114;6.542;2024-01-06T03:28:07;41.10;;;25.07;;
1404;SDS011;697;51.114;6.542;2024-01-06T03:30:34;34.30;;;24.80;;
1404;SDS011;697;51.114;6.542;2024-01-06T03:33:02;36.80;;;26.30;;
1404;SDS011;697;51.114;6.542;2024-01-06T03:35:30;41.13;;;26.10;;
1404;SDS011;697;51.114;6.542;2024-01-06T03:37:56;35.13;;;25.57;;
1404;SDS011;697;51.114;6.542;2024-01-06T03:40:23;36.70;;;24.83;;
1404;SDS011;697;51.114;6.542;2024-01-06T03:42:50;35.87;;;24.47;;
1404;SDS011;697;51.114;6.542;2024-01-06T03:45:18;36.73;;;24.67;;
1404;SDS011;697;51.114;6.542;2024-01-06T03:47:45;38.33;;;26.20;;
1404;SDS011;697;51.114;6.542;2024-01-06T03:50:13;34.40;;;24.27;;
1404;SDS011;697;51.114;6.542;2024-01-06T03:52:40;36.87;;;25.07;;
1404;SDS011;697;51.114;6.542;2024-01-06T03:55:07;37.87;;;25.73;;
1404;SDS011;697;51.114;6.542;2024-01-06T03:57:34;34.40;;;23.97;;
1404;SDS011;697;51.114;6.542;2024-01-06T04:00:01;34.27;;;23.20;;
1404;SDS011;697;51.114;6.542;2024-01-06T04:02:28;34.57;;;23.60;;
1404;SDS011;697;51.114;6.542;2024-01-06T04:04:55;31.23;;;20.83;;
1404;SDS011;697;51.114;6.542;2024-01-06T04:07:23;31.53;;;20.07;;
1404;SDS011;697;51.114;6.542;2024-01-06T04:09:50;21.40;;;15.67;;
1404;SDS011;697;51.114;6.542;2024-01-06T04:12:17;21.73;;;14.93;;
1404;SDS011;697;51.114;6.542;2024-01-06T04:14:44;21.27;;;13.57;;
1404;SDS011;697;51.114;6.542;2024-01-06T04:17:11;20.50;;;14.37;;
1404;SDS011;697;51.114;6.542;2024-01-06T04:19:39;21.00;;;14.10;;
1404;SDS011;697;51.114;6.542;2024-01-06T04:22:06;20.20;;;12.67;;
1404;SDS011;697;51.114;6.542;2024-01-06T04:24:34;18.73;;;12.50;;
1404;SDS011;697;51.114;6.542;2024-01-06T04:27:02;18.00;;;12.47;;
1404;SDS011;697;51.114;6.542;2024-01-06T04:29:29;18.77;;;11.60;;
1404;SDS011;697;51.114;6.542;2024-01-06T04:31:57;16.90;;;11.20;;
1404;SDS011;697;51.114;6.542;2024-01-06T04:34:24;14.50;;;9.97;;
1404;SDS011;697;51.114;6.542;2024-01-06T04:36:51;16.07;;;10.97;;
1404;SDS011;697;51.114;6.542;2024-01-06T04:39:18;15.87;;;10.83;;
1404;SDS011;697;51.114;6.542;2024-01-06T04:41:46;14.50;;;10.37;;
1404;SDS011;697;51.114;6.542;2024-01-06T04:44:12;15.63;;;10.40;;
1404;SDS011;697;51.114;6.542;2024-01-06T04:46:39;16.73;;;10.50;;
1404;SDS011;697;51.114;6.542;2024-01-06T04:49:06;15.90;;;9.77;;
1404;SDS011;697;51.114;6.542;2024-01-06T04:51:33;16.40;;;10.83;;
1404;SDS011;697;51.114;6.542;2024-01-06T04:53:59;15.57;;;9.30;;
1404;SDS011;697;51.114;6.542;2024-01-06T04:56:26;13.13;;;8.80;;
1404;SDS011;697;51.114;6.542;2024-01-06T04:58:54;10.87;;;8.70;;
1404;SDS011;697;51.114;6.542;2024-01-06T05:01:22;13.90;;;9.20;;
1404;SDS011;697;51.114;6.542;2024-01-06T05:03:49;16.27;;;9.60;;
1404;SDS011;697;51.114;6.542;2024-01-06T05:06:19;13.03;;;9.00;;
1404;SDS011;697;51.114;6.542;2024-01-06T05:08:45;12.60;;;9.20;;
1404;SDS011;697;51.114;6.542;2024-01-06T05:11:12;14.60;;;10.03;;
1404;SDS011;697;51.114;6.542;2024-01-06T05:13:39;13.83;;;8.43;;
1404;SDS011;697;51.114;6.542;2024-01-06T05:16:07;13.70;;;9.13;;
1404;SDS011;697;51.114;6.542;2024-01-06T05:18:34;12.53;;;9.03;;
1404;SDS011;697;51.114;6.542;2024-01-06T05:21:01;12.47;;;8.33;;
1404;SDS011;697;51.114;6.542;2024-01-06T05:23:29;13.93;;;8.90;;
1404;SDS011;697;51.114;6.542;2024-01-06T05:25:55;15.60;;;10.43;;
1404;SDS011;697;51.114;6.542;2024-01-06T05:28:22;14.43;;;9.90;;
1404;SDS011;697;51.114;6.542;2024-01-06T05:30:50;12.63;;;9.00;;
1404;SDS011;697;51.114;6.542;2024-01-06T05:33:18;14.37;;;9.70;;
1404;SDS011;697;51.114;6.542;2024-01-06T05:35:44;13.30;;;8.53;;
1404;SDS011;697;51.114;6.542;2024-01-06T05:38:11;14.70;;;10.57;;
1404;SDS011;697;51.114;6.542;2024-01-06T05:40:38;11.03;;;8.33;;
1404;SDS011;697;51.114;6.542;2024-01-06T05:43:05;13.50;;;9.23;;
1404;SDS011;697;51.114;6.542;2024-01-06T05:45:32;15.00;;;10.10;;
1404;SDS011;697;51.114;6.542;2024-01-06T05:47:58;16.83;;;9.90;;
1404;SDS011;697;51.114;6.542;2024-01-06T05:50:26;14.30;;;9.80;;
1404;SDS011;697;51.114;6.542;2024-01-06T05:52:54;12.10;;;8.63;;
1404;SDS011;697;51.114;6.542;2024-01-06T05:55:20;12.97;;;9.13;;
1404;SDS011;697;51.114;6.542;2024-01-06T05:57:47;13.07;;;9.87;;
1404;SDS011;697;51.114;6.542;2024-01-06T06:00:14;14.00;;;9.47;;
1404;SDS011;697;51.114;6.542;2024-01-06T06:02:42;16.07;;;9.60;;
1404;SDS011;697;51.114;6.542;2024-01-06T06:05:09;14.03;;;9.43;;
1404;SDS011;697;51.114;6.542;2024-01-06T06:07:37;16.53;;;10.70;;
1404;SDS011;697;51.114;6.542;2024-01-06T06:10:05;13.90;;;9.23;;
1404;SDS011;697;51.114;6.542;2024-01-06T06:12:33;14.10;;;9.10;;
1404;SDS011;697;51.114;6.542;2024-01-06T06:15:00;15.37;;;10.60;;
1404;SDS011;697;51.114;6.542;2024-01-06T06:17:28;15.03;;;9.80;;
1404;SDS011;697;51.114;6.542;2024-01-06T06:19:55;16.07;;;9.73;;
1404;SDS011;697;51.114;6.542;2024-01-06T06:22:22;14.20;;;8.70;;
1404;SDS011;697;51.114;6.542;2024-01-06T06:24:52;18.30;;;10.63;;
1404;SDS011;697;51.114;6.542;2024-01-06T06:27:19;13.93;;;9.50;;
1404;SDS011;697;51.114;6.542;2024-01-06T06:29:45;13.90;;;9.40;;
1404;SDS011;697;51.114;6.542;2024-01-06T06:32:12;13.17;;;9.70;;
1404;SDS011;697;51.114;6.542;2024-01-06T06:34:39;14.60;;;9.30;;
1404;SDS011;697;51.114;6.542;2024-01-06T06:37:07;12.70;;;8.70;;
1404;SDS011;697;51.114;6.542;2024-01-06T06:39:34;12.87;;;9.20;;
1404;SDS011;697;51.114;6.542;2024-01-06T06:42:02;13.90;;;9.60;;
1404;SDS011;697;51.114;6.542;2024-01-06T06:44:30;12.90;;;8.60;;
1404;SDS011;697;51.114;6.542;2024-01-06T06:46:57;15.07;;;9.73;;
1404;SDS011;697;51.114;6.542;2024-01-06T06:49:23;12.70;;;9.23;;
1404;SDS011;697;51.114;6.542;2024-01-06T06:51:50;13.70;;;8.90;;
1404;SDS011;697;51.114;6.542;2024-01-06T06:54:17;17.00;;;9.73;;
1404;SDS011;697;51.114;6.542;2024-01-06T06:56:44;14.57;;;10.00;;
1404;SDS011;697;51.114;6.542;2024-01-06T06:59:12;13.90;;;9.83;;
1404;SDS011;697;51.114;6.542;2024-01-06T07:01:39;15.03;;;10.00;;
1404;SDS011;697;51.114;6.542;2024-01-06T07:04:06;16.03;;;10.77;;
1404;SDS011;697;51.114;6.542;2024-01-06T07:06:33;15.43;;;9.77;;
1404;SDS011;697;51.114;6.542;2024-01-06T07:09:01;13.63;;;8.90;;
1404;SDS011;697;51.114;6.542;2024-01-06T07:11:30;14.20;;;9.13;;
1404;SDS011;697;51.114;6.542;2024-01-06T07:13:56;16.80;;;9.80;;
1404;SDS011;697;51.114;6.542;2024-01-06T07:16:23;16.53;;;11.13;;
1404;SDS011;697;51.114;6.542;2024-01-06T07:18:50;15.33;;;9.80;;
1404;SDS011;697;51.114;6.542;2024-01-06T07:21:17;12.97;;;9.10;;
1404;SDS011;697;51.114;6.542;2024-01-06T07:23:44;19.50;;;11.83;;
1404;SDS011;697;51.114;6.542;2024-01-06T07:26:11;13.00;;;9.87;;
1404;SDS011;697;51.114;6.542;2024-01-06T07:28:38;15.77;;;10.77;;
1404;SDS011;697;51.114;6.542;2024-01-06T07:31:05;16.57;;;11.13;;
1404;SDS011;697;51.114;6.542;2024-01-06T07:33:33;15.23;;;10.27;;
1404;SDS011;697;51.114;6.542;2024-01-06T07:36:00;14.40;;;10.07;;
1404;SDS011;697;51.114;6.542;2024-01-06T07:38:26;16.63;;;10.23;;
1404;SDS011;697;51.114;6.542;2024-01-06T07:40:56;13.90;;;9.37;;
1404;SDS011;697;51.114;6.542;2024-01-06T07:43:22;13.10;;;8.50;;
1404;SDS011;697;51.114;6.542;2024-01-06T07:45:49;13.67;;;9.47;;
1404;SDS011;697;51.114;6.542;2024-01-06T07:48:16;15.23;;;9.40;;
1404;SDS011;697;51.114;6.542;2024-01-06T07:50:44;15.10;;;9.80;;
1404;SDS011;697;51.114;6.542;2024-01-06T07:53:11;15.07;;;9.63;;
1404;SDS011;697;51.114;6.542;2024-01-06T07:55:38;13.23;;;9.53;;
1404;SDS011;697;51.114;6.542;2024-01-06T07:58:05;15.67;;;9.80;;
1404;SDS011;697;51.114;6.542;2024-01-06T08:00:32;12.80;;;8.80;;
1404;SDS011;697;51.114;6.542;2024-01-06T08:02:59;14.73;;;10.10;;
1404;SDS011;697;51.114;6.542;2024-01-06T08:05:27;13.93;;;10.33;;
1404;SDS011;697;51.114;6.542;2024-01-06T08:07:55;13.33;;;8.77;;
1404;SDS011;697;51.114;6.542;2024-01-06T08:10:22;13.97;;;9.70;;
1404;SDS011;697;51.114;6.542;2024-01-06T08:12:49;14.33;;;9.97;;
1404;SDS011;697;51.114;6.542;2024-01-06T08:15:15;13.30;;;9.00;;
1404;SDS011;697;51.114;6.542;2024-01-06T08:17:42;18.47;;;11.27;;
1404;SDS011;697;51.114;6.542;2024-01-06T08:20:09;14.07;;;9.33;;
1404;SDS011;697;51.114;6.542;2024-01-06T08:22:36;11.60;;;8.30;;
1404;SDS011;697;51.114;6.542;2024-01-06T08:25:06;11.90;;;8.53;;
1404;SDS011;697;51.114;6.542;2024-01-06T08:27:33;11.20;;;7.63;;
1404;SDS011;697;51.114;6.542;2024-01-06T08:30:00;13.30;;;8.43;;
1404;SDS011;697;51.114;6.542;2024-01-06T08:32:27;13.83;;;9.13;;
1404;SDS011;697;51.114;6.542;2024-01-06T08:34:53;11.97;;;7.93;;
1404;SDS011;697;51.114;6.542;2024-01-06T08:37:20;11.87;;;7.83;;
1404;SDS011;697;51.114;6.542;2024-01-06T08:39:47;10.40;;;7.30;;
1404;SDS011;697;51.114;6.542;2024-01-06T08:42:15;13.83;;;8.87;;
1404;SDS011;697;51.114;6.542;2024-01-06T08:44:41;17.73;;;7.90;;
1404;SDS011;697;51.114;6.542;2024-01-06T08:47:09;11.27;;;7.80;;
1404;SDS011;697;51.114;6.542;2024-01-06T08:49:36;12.80;;;7.97;;
1404;SDS011;697;51.114;6.542;2024-01-06T08:52:02;13.40;;;9.07;;
1404;SDS011;697;51.114;6.542;2024-01-06T08:54:31;12.10;;;8.63;;
1404;SDS011;697;51.114;6.542;2024-01-06T08:56:58;12.30;;;8.73;;
1404;SDS011;697;51.114;6.542;2024-01-06T08:59:27;12.70;;;8.70;;
1404;SDS011;697;51.114;6.542;2024-01-06T09:01:54;11.33;;;8.13;;
1404;SDS011;697;51.114;6.542;2024-01-06T09:04:21;11.80;;;8.70;;
1404;SDS011;697;51.114;6.542;2024-01-06T09:06:48;11.40;;;7.53;;
1404;SDS011;697;51.114;6.542;2024-01-06T09:09:15;11.63;;;8.60;;
1404;SDS011;697;51.114;6.542;2024-01-06T09:11:42;12.50;;;8.43;;
1404;SDS011;697;51.114;6.542;2024-01-06T09:14:11;14.83;;;8.97;;
1404;SDS011;697;51.114;6.542;2024-01-06T09:16:39;11.03;;;9.30;;
1404;SDS011;697;51.114;6.542;2024-01-06T09:19:06;12.97;;;9.53;;
1404;SDS011;697;51.114;6.542;2024-01-06T09:21:33;10.83;;;8.17;;
1404;SDS011;697;51.114;6.542;2024-01-06T09:24:02;14.37;;;9.63;;
1404;SDS011;697;51.114;6.542;2024-01-06T09:26:31;13.60;;;9.50;;
1404;SDS011;697;51.114;6.542;2024-01-06T09:28:58;10.93;;;8.10;;
1404;SDS011;697;51.114;6.542;2024-01-06T09:31:25;12.67;;;9.03;;
1404;SDS011;697;51.114;6.542;2024-01-06T09:33:53;12.87;;;8.97;;
1404;SDS011;697;51.114;6.542;2024-01-06T09:36:20;15.00;;;9.90;;
1404;SDS011;697;51.114;6.542;2024-01-06T09:38:47;12.47;;;9.60;;
1404;SDS011;697;51.114;6.542;2024-01-06T09:41:14;13.53;;;9.60;;
1404;SDS011;697;51.114;6.542;2024-01-06T09:43:41;13.77;;;9.40;;
1404;SDS011;697;51.114;6.542;2024-01-06T09:46:10;14.20;;;9.33;;
1404;SDS011;697;51.114;6.542;2024-01-06T09:48:41;15.27;;;9.80;;
1404;SDS011;697;51.114;6.542;2024-01-06T09:51:12;14.80;;;9.67;;
1404;SDS011;697;51.114;6.542;2024-01-06T09:53:42;18.33;;;10.80;;
1404;SDS011;697;51.114;6.542;2024-01-06T09:56:14;16.17;;;10.93;;
1404;SDS011;697;51.114;6.542;2024-01-06T09:58:41;13.50;;;10.10;;
1404;SDS011;697;51.114;6.542;2024-01-06T10:01:09;12.87;;;9.00;;
1404;SDS011;697;51.114;6.542;2024-01-06T10:03:37;14.53;;;9.70;;
1404;SDS011;697;51.114;6.542;2024-01-06T10:06:04;14.17;;;9.83;;
1404;SDS011;697;51.114;6.542;2024-01-06T10:08:32;15.10;;;9.13;;
1404;SDS011;697;51.114;6.542;2024-01-06T10:11:00;12.00;;;8.40;;
1404;SDS011;697;51.114;6.542;2024-01-06T10:13:27;14.87;;;9.60;;
1404;SDS011;697;51.114;6.542;2024-01-06T10:15:54;12.70;;;8.63;;
1404;SDS011;697;51.114;6.542;2024-01-06T10:18:21;10.83;;;8.47;;
1404;SDS011;697;51.114;6.542;2024-01-06T10:20:48;12.03;;;7.93;;
1404;SDS011;697;51.114;6.542;2024-01-06T10:23:16;12.50;;;8.10;;
1404;SDS011;697;51.114;6.542;2024-01-06T10:25:44;14.13;;;8.73;;
1404;SDS011;697;51.114;6.542;2024-01-06T10:28:12;13.37;;;8.93;;
1404;SDS011;697;51.114;6.542;2024-01-06T10:30:40;12.83;;;7.87;;
1404;SDS011;697;51.114;6.542;2024-01-06T10:33:08;12.03;;;8.93;;
1404;SDS011;697;51.114;6.542;2024-01-06T10:35:35;10.43;;;8.00;;
1404;SDS011;697;51.114;6.542;2024-01-06T10:38:03;11.93;;;8.37;;
1404;SDS011;697;51.114;6.542;2024-01-06T10:40:30;12.03;;;8.57;;
1404;SDS011;697;51.114;6.542;2024-01-06T10:42:58;12.90;;;8.37;;
1404;SDS011;697;51.114;6.542;2024-01-06T10:45:28;9.50;;;7.33;;
1404;SDS011;697;51.114;6.542;2024-01-06T10:47:55;10.87;;;8.13;;
1404;SDS011;697;51.114;6.542;2024-01-06T10:50:24;12.63;;;8.40;;
1404;SDS011;697;51.114;6.542;2024-01-06T10:52:53;9.60;;;7.50;;
1404;SDS011;697;51.114;6.542;2024-01-06T10:55:22;10.90;;;8.10;;
1404;SDS011;697;51.114;6.542;2024-01-06T10:57:53;13.80;;;9.27;;
1404;SDS011;697;51.114;6.542;2024-01-06T11:00:23;14.10;;;10.30;;
1404;SDS011;697;51.114;6.542;2024-01-06T11:02:52;17.27;;;11.87;;
1404;SDS011;697;51.114;6.542;2024-01-06T11:05:21;17.00;;;12.40;;
1404;SDS011;697;51.114;6.542;2024-01-06T11:07:49;16.10;;;11.00;;
1404;SDS011;697;51.114;6.542;2024-01-06T11:10:20;17.53;;;11.60;;
1404;SDS011;697;51.114;6.542;2024-01-06T11:15:42;14.20;;;10.60;;
1404;SDS011;697;51.114;6.542;2024-01-06T11:18:19;15.50;;;10.90;;
1404;SDS011;697;51.114;6.542;2024-01-06T11:21:17;14.83;;;9.23;;
1404;SDS011;697;51.114;6.542;2024-01-06T11:26:52;14.57;;;10.70;;
1404;SDS011;697;51.114;6.542;2024-01-06T11:29:21;15.17;;;11.30;;
1404;SDS011;697;51.114;6.542;2024-01-06T11:32:17;14.50;;;11.07;;
1404;SDS011;697;51.114;6.542;2024-01-06T11:34:49;16.23;;;11.23;;
1404;SDS011;697;51.114;6.542;2024-01-06T11:37:18;15.20;;;11.50;;
1404;SDS011;697;51.114;6.542;2024-01-06T11:39:46;16.50;;;10.70;;
1404;SDS011;697;51.114;6.542;2024-01-06T11:42:13;16.80;;;12.00;;
1404;SDS011;697;51.114;6.542;2024-01-06T11:44:43;15.10;;;10.53;;
1404;SDS011;697;51.114;6.542;2024-01-06T11:47:11;16.50;;;11.33;;
1404;SDS011;697;51.114;6.542;2024-01-06T11:49:39;12.33;;;9.83;;
1404;SDS011;697;51.114;6.542;2024-01-06T11:52:11;14.53;;;10.40;;
1404;SDS011;697;51.114;6.542;2024-01-06T11:54:38;15.73;;;10.93;;
1404;SDS011;697;51.114;6.542;2024-01-06T11:57:05;13.57;;;10.30;;
1404;SDS011;697;51.114;6.542;2024-01-06T11:59:32;17.67;;;10.60;;
1404;SDS011;697;51.114;6.542;2024-01-06T12:01:59;15.73;;;11.30;;
1404;SDS011;697;51.114;6.542;2024-01-06T12:04:26;17.33;;;11.63;;
1404;SDS011;697;51.114;6.542;2024-01-06T12:06:55;17.40;;;12.00;;
1404;SDS011;697;51.114;6.542;2024-01-06T12:09:31;18.27;;;12.50;;
1404;SDS011;697;51.114;6.542;2024-01-06T12:12:00;15.90;;;11.40;;
1404;SDS011;697;51.114;6.542;2024-01-06T12:14:27;18.37;;;11.90;;
1404;SDS011;697;51.114;6.542;2024-01-06T12:16:55;18.40;;;12.33;;
1404;SDS011;697;51.114;6.542;2024-01-06T12:19:27;16.67;;;11.23;;
1404;SDS011;697;51.114;6.542;2024-01-06T12:21:58;14.73;;;10.63;;
1404;SDS011;697;51.114;6.542;2024-01-06T12:24:26;14.17;;;11.17;;
1404;SDS011;697;51.114;6.542;2024-01-06T12:26:54;15.10;;;10.80;;
1404;SDS011;697;51.114;6.542;2024-01-06T12:29:22;15.20;;;10.60;;
1404;SDS011;697;51.114;6.542;2024-01-06T12:31:52;15.23;;;10.13;;
1404;SDS011;697;51.114;6.542;2024-01-06T12:34:18;15.43;;;10.20;;
1404;SDS011;697;51.114;6.542;2024-01-06T12:36:47;15.90;;;10.40;;
1404;SDS011;697;51.114;6.542;2024-01-06T12:39:15;16.33;;;11.37;;
1404;SDS011;697;51.114;6.542;2024-01-06T12:41:43;15.03;;;10.03;;
1404;SDS011;697;51.114;6.542;2024-01-06T12:44:11;16.40;;;11.30;;
1404;SDS011;697;51.114;6.542;2024-01-06T12:46:38;16.20;;;11.27;;
1404;SDS011;697;51.114;6.542;2024-01-06T12:49:05;16.33;;;11.50;;
1404;SDS011;697;51.114;6.542;2024-01-06T12:51:32;18.03;;;11.40;;
1404;SDS011;697;51.114;6.542;2024-01-06T12:53:59;16.83;;;11.80;;
1404;SDS011;697;51.114;6.542;2024-01-06T12:56:28;19.20;;;12.97;;
1404;SDS011;697;51.114;6.542;2024-01-06T12:58:55;21.03;;;12.87;;
1404;SDS011;697;51.114;6.542;2024-01-06T13:01:22;20.70;;;13.50;;
1404;SDS011;697;51.114;6.542;2024-01-06T13:03:48;15.67;;;11.23;;
1404;SDS011;697;51.114;6.542;2024-01-06T13:06:16;16.60;;;11.20;;
1404;SDS011;697;51.114;6.542;2024-01-06T13:08:44;18.20;;;11.63;;
1404;SDS011;697;51.114;6.542;2024-01-06T13:11:10;17.53;;;12.97;;
1404;SDS011;697;51.114;6.542;2024-01-06T13:13:39;17.60;;;14.27;;
1404;SDS011;697;51.114;6.542;2024-01-06T13:16:06;18.70;;;13.73;;
1404;SDS011;697;51.114;6.542;2024-01-06T13:18:34;19.13;;;12.30;;
1404;SDS011;697;51.114;6.542;2024-01-06T13:21:01;19.30;;;12.70;;
1404;SDS011;697;51.114;6.542;2024-01-06T13:23:28;18.57;;;13.27;;
1404;SDS011;697;51.114;6.542;2024-01-06T13:25:55;21.70;;;14.20;;
1404;SDS011;697;51.114;6.542;2024-01-06T13:28:23;21.77;;;14.30;;
1404;SDS011;697;51.114;6.542;2024-01-06T13:30:51;25.30;;;15.97;;
1404;SDS011;697;51.114;6.542;2024-01-06T13:33:18;21.63;;;14.00;;
1404;SDS011;697;51.114;6.542;2024-01-06T13:35:45;22.20;;;13.97;;
1404;SDS011;697;51.114;6.542;2024-01-06T13:38:11;26.30;;;16.27;;
1404;SDS011;697;51.114;6.542;2024-01-06T13:40:38;24.40;;;17.07;;
1404;SDS011;697;51.114;6.542;2024-01-06T13:43:04;24.97;;;16.93;;
1404;SDS011;697;51.114;6.542;2024-01-06T13:45:34;34.20;;;18.70;;
1404;SDS011;697;51.114;6.542;2024-01-06T13:48:02;26.67;;;18.07;;
1404;SDS011;697;51.114;6.542;2024-01-06T13:50:29;29.70;;;18.20;;
1404;SDS011;697;51.114;6.542;2024-01-06T13:52:58;29.37;;;17.90;;
1404;SDS011;697;51.114;6.542;2024-01-06T13:55:27;30.07;;;20.00;;
1404;SDS011;697;51.114;6.542;2024-01-06T13:57:54;29.23;;;17.60;;
1404;SDS011;697;51.114;6.542;2024-01-06T14:00:21;25.67;;;17.33;;
1404;SDS011;697;51.114;6.542;2024-01-06T14:02:48;26.50;;;16.43;;
1404;SDS011;697;51.114;6.542;2024-01-06T14:05:16;29.63;;;16.40;;
1404;SDS011;697;51.114;6.542;2024-01-06T14:07:44;24.20;;;15.07;;
1404;SDS011;697;51.114;6.542;2024-01-06T14:10:13;24.73;;;16.93;;
1404;SDS011;697;51.114;6.542;2024-01-06T14:12:40;23.50;;;15.70;;
1404;SDS011;697;51.114;6.542;2024-01-06T14:15:08;21.53;;;14.00;;
1404;SDS011;697;51.114;6.542;2024-01-06T14:17:35;23.83;;;15.90;;
1404;SDS011;697;51.114;6.542;2024-01-06T14:20:02;23.20;;;15.10;;
1404;SDS011;697;51.114;6.542;2024-01-06T14:22:31;25.17;;;17.80;;
1404;SDS011;697;51.114;6.542;2024-01-06T14:24:58;23.37;;;15.37;;
1404;SDS011;697;51.114;6.542;2024-01-06T14:27:25;34.37;;;20.57;;
1404;SDS011;697;51.114;6.542;2024-01-06T14:29:53;31.17;;;19.83;;
1404;SDS011;697;51.114;6.542;2024-01-06T14:32:20;35.03;;;21.17;;
1404;SDS011;697;51.114;6.542;2024-01-06T14:34:49;48.33;;;30.03;;
1404;SDS011;697;51.114;6.542;2024-01-06T14:37:16;40.40;;;26.30;;
1404;SDS011;697;51.114;6.542;2024-01-06T14:39:44;44.43;;;32.97;;
1404;SDS011;697;51.114;6.542;2024-01-06T14:42:11;35.73;;;23.60;;
1404;SDS011;697;51.114;6.542;2024-01-06T14:44:38;33.17;;;25.83;;
1404;SDS011;697;51.114;6.542;2024-01-06T14:47:05;31.80;;;22.27;;
1404;SDS011;697;51.114;6.542;2024-01-06T14:49:33;32.43;;;21.90;;
1404;SDS011;697;51.114;6.542;2024-01-06T14:52:00;21.90;;;16.47;;
1404;SDS011;697;51.114;6.542;2024-01-06T14:54:28;22.90;;;15.70;;
1404;SDS011;697;51.114;6.542;2024-01-06T14:56:59;21.30;;;14.60;;
1404;SDS011;697;51.114;6.542;2024-01-06T14:59:26;23.00;;;15.97;;
1404;SDS011;697;51.114;6.542;2024-01-06T15:01:52;23.10;;;15.20;;
1404;SDS011;697;51.114;6.542;2024-01-06T15:04:19;20.10;;;14.33;;
1404;SDS011;697;51.114;6.542;2024-01-06T15:06:46;22.90;;;14.70;;
1404;SDS011;697;51.114;6.542;2024-01-06T15:09:14;20.37;;;14.00;;
1404;SDS011;697;51.114;6.542;2024-01-06T15:11:42;25.50;;;14.90;;
1404;SDS011;697;51.114;6.542;2024-01-06T15:14:10;23.67;;;15.67;;